Time;durP1;ratioP1;P1;durP2;ratioP2;P2;SDS_P1;SDS_P2;PMS_P1;PMS_P2;Temp;Humidity;BMP_temperature;BMP_pressure;BME280_temperature;BME280_humidity;BME280_pressure;Samples;Min_cycle;Max_cycle;Signal;HPM_P1;HPM_P2
2023/10/14 00:01:27;;;;;;;12.02;4.07;;;22.70;99.90;;;;;;4995471;28;20057;-48
2023/10/14 00:03:54;;;;;;;11.07;4.32;;;22.70;99.90;;;;;;4995501;28;20092;-47
2023/10/14 00:06:20;;;;;;;11.57;4.80;;;22.60;99.90;;;;;;4995359;28;20118;-46
2023/10/14 00:08:57;;;;;;;13.20;4.68;;;22.60;99.90;;;;;;4995282;28;20121;-48
2023/10/14 00:11:33;;;;;;;17.10;5.00;;;22.50;99.90;;;;;;4995394;28;20035;-50
2023/10/14 00:13:59;;;;;;;14.27;4.45;;;22.50;99.90;;;;;;4995333;28;20034;-44
2023/10/14 00:18:58;;;;;;;12.32;4.38;;;22.50;99.90;;;;;;4994863;28;20022;-47
2023/10/14 00:21:25;;;;;;;12.38;5.43;;;22.40;99.90;;;;;;4993956;28;20088;-52
2023/10/14 00:23:55;;;;;;;12.80;5.18;;;22.40;99.90;;;;;;4995179;28;20051;-48
2023/10/14 00:26:24;;;;;;;15.52;5.18;;;22.40;99.90;;;;;;4994857;28;20041;-45
2023/10/14 00:28:54;;;;;;;22.92;5.07;;;22.40;99.90;;;;;;4994979;28;20018;-45
2023/10/14 00:31:21;;;;;;;13.82;5.28;;;22.40;99.90;;;;;;4995368;28;20061;-45
2023/10/14 00:33:47;;;;;;;11.27;5.10;;;22.30;99.90;;;;;;4994717;28;20035;-47
2023/10/14 00:36:16;;;;;;;16.52;5.75;;;22.30;99.90;;;;;;4994323;28;20027;-46
2023/10/14 00:38:44;;;;;;;10.27;4.68;;;22.20;99.90;;;;;;4994795;28;20030;-46
2023/10/14 00:41:11;;;;;;;12.68;5.05;;;22.30;99.90;;;;;;4994727;28;20084;-45
2023/10/14 00:43:39;;;;;;;12.93;4.95;;;22.30;99.90;;;;;;4994721;28;20015;-45
2023/10/14 00:46:14;;;;;;;22.17;5.80;;;22.40;99.90;;;;;;4994409;28;20025;-50
2023/10/14 00:48:44;;;;;;;21.52;5.18;;;22.30;99.90;;;;;;4993196;28;20025;-47
2023/10/14 00:51:10;;;;;;;19.52;5.55;;;22.40;99.90;;;;;;4994705;28;20030;-43
2023/10/14 00:53:39;;;;;;;23.52;5.90;;;22.30;99.90;;;;;;4993173;28;20027;-45
2023/10/14 00:56:06;;;;;;;13.90;4.88;;;22.40;99.90;;;;;;4994338;28;20166;-46
2023/10/14 00:58:39;;;;;;;21.63;5.30;;;22.40;99.90;;;;;;4993124;28;20023;-50
2023/10/14 01:01:07;;;;;;;12.02;5.50;;;22.40;99.90;;;;;;4994413;28;20026;-49
2023/10/14 01:03:36;;;;;;;15.30;5.60;;;22.50;99.90;;;;;;4994341;28;20081;-44
2023/10/14 01:08:49;;;;;;;15.68;4.93;;;22.40;99.90;;;;;;4994528;28;20052;-48
2023/10/14 01:11:18;;;;;;;10.95;4.88;;;22.40;99.90;;;;;;4994194;28;20033;-48
2023/10/14 01:13:46;;;;;;;15.25;6.40;;;22.40;99.90;;;;;;4994040;28;20098;-52
2023/10/14 01:16:12;;;;;;;20.65;6.40;;;22.40;99.90;;;;;;4993901;28;20030;-46
2023/10/14 01:18:44;;;;;;;19.05;5.55;;;22.40;99.90;;;;;;4993655;28;20033;-51
2023/10/14 01:21:09;;;;;;;11.23;5.50;;;22.30;99.90;;;;;;4994482;28;20620;-46
2023/10/14 01:23:36;;;;;;;19.13;5.93;;;22.30;99.90;;;;;;4994048;28;20026;-45
2023/10/14 01:26:04;;;;;;;15.65;5.70;;;22.30;99.90;;;;;;4993929;28;20217;-45
2023/10/14 01:28:31;;;;;;;12.43;5.28;;;22.30;99.90;;;;;;4994068;28;20042;-44
2023/10/14 01:33:56;;;;;;;13.18;5.38;;;22.20;99.90;;;;;;4994204;28;20054;-45
2023/10/14 01:36:32;;;;;;;15.82;5.75;;;22.20;99.90;;;;;;4993617;28;20027;-46
2023/10/14 01:38:59;;;;;;;10.35;6.13;;;22.20;99.90;;;;;;4992579;28;20052;-45
2023/10/14 01:41:29;;;;;;;15.43;6.50;;;22.20;99.90;;;;;;4993634;28;20417;-51
2023/10/14 01:43:57;;;;;;;15.43;5.38;;;22.10;99.90;;;;;;4993474;28;20118;-44
2023/10/14 01:46:27;;;;;;;11.20;5.68;;;22.20;99.90;;;;;;4992478;28;20019;-45
2023/10/14 01:48:53;;;;;;;14.35;5.28;;;22.20;99.90;;;;;;4992182;28;20478;-44
2023/10/14 01:51:19;;;;;;;14.27;4.95;;;22.10;99.90;;;;;;4993512;28;20093;-45
2023/10/14 01:53:45;;;;;;;12.02;5.70;;;22.20;99.90;;;;;;4993592;28;20481;-49
2023/10/14 01:56:10;;;;;;;15.65;5.60;;;22.10;99.90;;;;;;4993249;28;20034;-46
2023/10/14 01:58:36;;;;;;;12.57;5.75;;;22.10;99.90;;;;;;4993142;28;20058;-45
2023/10/14 02:03:48;;;;;;;8.45;4.93;;;22.00;99.90;;;;;;4993201;28;20019;-52
2023/10/14 02:06:18;;;;;;;10.70;5.60;;;22.00;99.90;;;;;;4993042;28;20019;-51
2023/10/14 02:08:47;;;;;;;14.15;5.80;;;22.00;99.90;;;;;;4992998;28;20030;-45
2023/10/14 02:11:16;;;;;;;11.35;4.80;;;22.00;99.90;;;;;;4993075;28;20038;-44
2023/10/14 02:13:42;;;;;;;10.80;4.60;;;21.90;99.90;;;;;;4992937;28;20026;-46
2023/10/14 02:16:07;;;;;;;11.32;4.80;;;21.90;99.90;;;;;;4992858;28;20148;-46
2023/10/14 02:18:36;;;;;;;12.95;4.50;;;21.80;99.90;;;;;;4991460;28;20026;-46
2023/10/14 02:21:06;;;;;;;9.25;4.20;;;21.80;99.90;;;;;;4992881;28;20108;-46
2023/10/14 02:23:47;;;;;;;10.38;4.80;;;21.80;99.90;;;;;;4992822;28;20022;-45
2023/10/14 02:26:22;;;;;;;14.13;4.90;;;21.90;99.90;;;;;;4992755;28;20030;-48
2023/10/14 02:28:49;;;;;;;12.65;4.15;;;21.90;99.90;;;;;;4992840;28;20026;-45
2023/10/14 02:31:18;;;;;;;13.70;4.15;;;21.90;99.90;;;;;;4992871;28;20174;-49
2023/10/14 02:33:45;;;;;;;11.70;4.47;;;21.90;99.90;;;;;;4992774;28;20058;-47
2023/10/14 02:36:15;;;;;;;17.10;4.78;;;21.90;99.90;;;;;;4992583;28;20398;-47
2023/10/14 02:38:53;;;;;;;20.20;6.05;;;21.90;99.90;;;;;;4992573;28;20478;-50
2023/10/14 02:41:19;;;;;;;9.13;4.18;;;21.90;99.90;;;;;;4992596;28;20069;-47
2023/10/14 02:43:48;;;;;;;13.05;4.13;;;21.90;99.90;;;;;;4992468;28;20072;-50
2023/10/14 02:46:19;;;;;;;12.57;4.53;;;21.90;99.90;;;;;;4992384;28;20393;-43
2023/10/14 02:48:55;;;;;;;8.77;3.90;;;21.90;99.90;;;;;;4992731;28;20030;-51
2023/10/14 02:51:41;;;;;;;16.65;4.90;;;21.80;99.90;;;;;;4992796;28;20023;-44
2023/10/14 02:59:19;;;;;;;16.92;3.92;;;21.70;99.90;;;;;;4992460;28;20034;-45
2023/10/14 03:02:09;;;;;;;18.05;5.32;;;21.70;99.90;;;;;;4992290;28;20030;-44
2023/10/14 03:04:39;;;;;;;11.48;4.13;;;21.70;99.90;;;;;;4992251;28;20037;-45
2023/10/14 03:07:07;;;;;;;12.23;4.40;;;21.70;99.90;;;;;;4992157;28;20018;-44
2023/10/14 03:09:34;;;;;;;12.63;5.13;;;21.60;99.90;;;;;;4992094;28;20030;-47
2023/10/14 03:12:00;;;;;;;16.73;4.50;;;21.60;99.90;;;;;;4992169;28;20041;-48
2023/10/14 03:14:28;;;;;;;20.25;5.20;;;21.60;99.90;;;;;;4992041;28;20081;-47
2023/10/14 03:16:53;;;;;;;12.10;4.95;;;21.70;99.90;;;;;;4991580;28;20426;-47
2023/10/14 03:19:19;;;;;;;14.82;4.25;;;21.70;99.90;;;;;;4992139;28;20026;-45
2023/10/14 03:21:58;;;;;;;18.20;4.35;;;21.60;99.90;;;;;;4992040;28;20217;-50
2023/10/14 03:24:25;;;;;;;19.40;5.63;;;21.60;99.90;;;;;;4992133;28;20023;-45
2023/10/14 03:26:58;;;;;;;18.95;6.03;;;21.60;99.90;;;;;;4991839;28;20543;-45
2023/10/14 03:29:25;;;;;;;16.55;5.55;;;21.50;99.90;;;;;;4991830;28;20031;-48
2023/10/14 03:31:50;;;;;;;15.30;4.80;;;21.50;99.90;;;;;;4991986;28;20018;-50
2023/10/14 03:34:17;;;;;;;12.13;4.95;;;21.50;99.90;;;;;;4991912;28;20141;-48
2023/10/14 03:36:43;;;;;;;16.58;5.10;;;21.50;99.90;;;;;;4991939;28;20015;-51
2023/10/14 03:39:28;;;;;;;15.63;4.63;;;21.50;99.90;;;;;;4992140;28;20029;-50
2023/10/14 03:41:54;;;;;;;11.77;3.90;;;21.50;99.90;;;;;;4991864;28;20491;-45
2023/10/14 03:44:23;;;;;;;10.15;4.03;;;21.50;99.90;;;;;;4991838;28;20112;-50
2023/10/14 03:46:59;;;;;;;9.73;3.78;;;21.40;99.90;;;;;;4991750;28;20026;-45
2023/10/14 03:49:25;;;;;;;7.93;4.28;;;21.30;99.90;;;;;;4991953;28;20427;-48
2023/10/14 03:51:57;;;;;;;8.85;4.28;;;21.30;99.90;;;;;;4991939;28;20028;-42
2023/10/14 03:54:28;;;;;;;12.73;5.10;;;21.20;99.90;;;;;;4991468;28;20026;-46
2023/10/14 03:56:57;;;;;;;12.60;4.18;;;21.20;99.90;;;;;;4991657;28;20027;-45
2023/10/14 03:59:23;;;;;;;11.88;3.60;;;21.10;99.90;;;;;;4991803;28;20471;-46
2023/10/14 04:02:15;;;;;;;11.57;3.53;;;21.10;99.90;;;;;;4991868;28;20173;-45
2023/10/14 04:04:42;;;;;;;17.35;3.50;;;21.00;99.90;;;;;;4991486;28;20042;-45
2023/10/14 04:09:37;;;;;;;10.02;4.18;;;20.90;99.90;;;;;;4992649;28;20034;-51
2023/10/14 04:12:12;;;;;;;12.57;3.30;;;20.90;99.90;;;;;;4995456;28;20023;-45
2023/10/14 04:14:38;;;;;;;8.48;3.28;;;20.80;99.90;;;;;;4995351;28;20023;-48
2023/10/14 04:17:19;;;;;;;7.85;4.05;;;20.90;99.90;;;;;;4993549;28;20414;-47
2023/10/14 04:19:46;;;;;;;8.30;3.40;;;20.80;99.90;;;;;;4995126;28;20041;-47
2023/10/14 04:27:54;;;;;;;11.23;4.03;;;20.70;99.90;;;;;;4995149;28;20495;-48
2023/10/14 04:35:23;;;;;;;14.65;3.25;;;20.60;99.90;;;;;;4995098;28;20026;-43
2023/10/14 04:37:52;;;;;;;8.30;2.75;;;20.60;99.90;;;;;;4994759;28;20034;-46
2023/10/14 04:40:53;;;;;;;10.82;2.55;;;20.50;99.90;;;;;;4993491;28;20031;-46
2023/10/14 04:45:51;;;;;;;8.73;1.75;;;20.40;99.90;;;;;;4994865;28;20023;-46
2023/10/14 04:48:17;;;;;;;5.53;1.75;;;20.40;99.90;;;;;;4994693;28;20088;-45
2023/10/14 04:50:44;;;;;;;6.70;2.67;;;20.40;99.90;;;;;;4994601;28;20457;-51
2023/10/14 04:53:13;;;;;;;6.38;1.58;;;20.30;99.90;;;;;;4994512;28;20101;-52
2023/10/14 04:55:43;;;;;;;3.53;1.45;;;20.30;99.90;;;;;;4994487;28;20026;-46
2023/10/14 04:58:13;;;;;;;5.78;1.30;;;20.30;99.90;;;;;;4994420;28;20409;-50
2023/10/14 05:00:43;;;;;;;5.70;1.30;;;20.30;99.90;;;;;;4994381;28;20113;-46
2023/10/14 05:03:20;;;;;;;5.63;1.52;;;20.20;99.90;;;;;;4994859;28;20029;-46
2023/10/14 05:05:52;;;;;;;6.63;1.77;;;20.20;99.90;;;;;;4977601;28;20465;-48
2023/10/14 05:10:56;;;;;;;4.57;0.95;;;20.20;99.90;;;;;;5009890;28;20113;-52
2023/10/14 05:13:34;;;;;;;4.05;1.23;;;20.10;99.90;;;;;;5013791;28;20444;-51
2023/10/14 05:16:15;;;;;;;4.15;1.58;;;20.10;99.90;;;;;;5013737;28;20050;-49
2023/10/14 05:18:43;;;;;;;0.90;0.70;;;20.00;99.90;;;;;;5012355;28;20588;-51
2023/10/14 05:21:20;;;;;;;4.82;0.98;;;20.00;99.90;;;;;;5013813;28;20034;-50
2023/10/14 05:23:46;;;;;;;7.55;1.00;;;20.00;99.90;;;;;;5012421;28;20052;-49
2023/10/14 05:26:14;;;;;;;2.67;0.70;;;19.90;99.90;;;;;;5013654;28;20080;-50
2023/10/14 05:28:42;;;;;;;3.80;1.00;;;19.80;99.90;;;;;;5013851;28;20095;-49
2023/10/14 05:31:10;;;;;;;1.75;0.55;;;19.70;99.90;;;;;;5013817;28;20041;-52
2023/10/14 05:33:36;;;;;;;3.40;0.80;;;19.70;99.90;;;;;;5013753;28;20402;-51
2023/10/14 05:36:02;;;;;;;8.80;1.50;;;19.70;99.90;;;;;;5013287;28;20030;-48
2023/10/14 05:38:29;;;;;;;2.28;0.68;;;19.60;99.90;;;;;;5012128;28;20401;-53
2023/10/14 05:40:57;;;;;;;4.70;0.90;;;19.60;99.90;;;;;;5013346;28;20026;-49
2023/10/14 05:43:26;;;;;;;4.00;1.23;;;19.50;99.90;;;;;;5011990;28;20061;-49
2023/10/14 05:45:52;;;;;;;1.48;0.75;;;19.50;99.90;;;;;;5011698;28;20022;-52
2023/10/14 05:48:18;;;;;;;3.45;0.73;;;19.50;99.90;;;;;;5013177;28;20563;-52
2023/10/14 05:50:44;;;;;;;2.25;0.57;;;19.50;99.90;;;;;;5013232;28;20030;-53
2023/10/14 05:53:11;;;;;;;4.07;0.60;;;19.40;99.90;;;;;;5013391;28;20033;-57
2023/10/14 05:55:39;;;;;;;3.35;0.60;;;19.30;99.90;;;;;;5013350;28;20026;-54
2023/10/14 05:58:06;;;;;;;4.32;0.32;;;19.30;99.90;;;;;;5011607;28;20033;-53
2023/10/14 06:00:34;;;;;;;0.43;0.30;;;19.10;99.90;;;;;;5012868;28;20042;-55
2023/10/14 06:02:59;;;;;;;7.32;0.70;;;18.40;99.90;;;;;;5013020;28;20022;-49
2023/10/14 06:05:31;;;;;;;16.35;1.77;;;18.10;99.90;;;;;;5013225;28;20045;-52
2023/10/14 06:08:05;;;;;;;5.55;0.65;;;17.70;99.90;;;;;;5012749;28;20080;-50
2023/10/14 06:10:36;;;;;;;4.30;0.55;;;17.20;99.90;;;;;;5013041;28;20037;-51
2023/10/14 06:13:05;;;;;;;2.30;0.77;;;16.80;99.90;;;;;;5013123;28;20052;-51
2023/10/14 06:15:36;;;;;;;3.10;0.65;;;16.60;99.90;;;;;;5013032;28;20080;-50
2023/10/14 06:18:01;;;;;;;0.57;0.30;;;16.30;99.90;;;;;;5011459;28;20041;-52
2023/10/14 06:20:27;;;;;;;1.13;0.15;;;16.20;99.90;;;;;;5013532;28;20034;-52
2023/10/14 06:22:57;;;;;;;2.50;0.40;;;16.10;99.90;;;;;;5012951;28;20137;-50
2023/10/14 06:25:22;;;;;;;2.00;0.70;;;16.10;99.90;;;;;;5012714;28;20469;-50
2023/10/14 06:27:48;;;;;;;1.05;0.47;;;16.10;99.90;;;;;;5012391;28;20049;-49
2023/10/14 06:30:20;;;;;;;0.80;0.30;;;16.00;99.90;;;;;;5012842;28;20109;-51
2023/10/14 06:32:53;;;;;;;1.02;0.45;;;16.10;99.90;;;;;;5010721;28;20084;-52
2023/10/14 06:35:19;;;;;;;0.77;0.30;;;16.00;99.90;;;;;;5012608;28;20071;-52
2023/10/14 06:37:46;;;;;;;0.30;0.30;;;16.10;99.90;;;;;;5012345;28;20450;-50
2023/10/14 06:40:14;;;;;;;0.90;0.38;;;16.10;99.90;;;;;;5012311;28;20049;-54
2023/10/14 06:42:43;;;;;;;2.60;0.43;;;16.10;99.90;;;;;;5012350;28;20355;-50
2023/10/14 06:45:13;;;;;;;1.35;0.32;;;16.10;99.90;;;;;;5012229;28;20113;-55
2023/10/14 06:47:45;;;;;;;3.33;0.30;;;16.20;99.90;;;;;;5012369;28;20034;-51
2023/10/14 06:50:12;;;;;;;1.48;0.50;;;16.30;99.90;;;;;;5012139;28;20026;-49
2023/10/14 06:52:38;;;;;;;4.40;0.40;;;16.50;99.90;;;;;;5012247;28;20286;-51
2023/10/14 06:55:07;;;;;;;0.85;0.80;;;16.60;99.90;;;;;;5010576;28;20140;-49
2023/10/14 06:57:36;;;;;;;0.85;0.50;;;16.60;99.90;;;;;;5011877;28;20097;-53
2023/10/14 07:00:08;;;;;;;0.40;0.40;;;16.60;99.90;;;;;;5012375;28;20401;-52
2023/10/14 07:02:35;;;;;;;0.40;0.40;;;16.60;99.90;;;;;;5010987;28;20022;-49
2023/10/14 07:05:02;;;;;;;0.50;0.40;;;16.80;99.90;;;;;;5011427;28;20026;-51
2023/10/14 07:07:27;;;;;;;0.80;0.40;;;16.90;99.90;;;;;;5012677;28;20029;-53
2023/10/14 07:09:53;;;;;;;2.25;0.40;;;17.10;99.90;;;;;;5012621;28;20038;-48
2023/10/14 07:12:21;;;;;;;1.05;0.43;;;17.20;99.90;;;;;;5005151;28;20501;-52
2023/10/14 07:14:47;;;;;;;2.53;1.05;;;17.10;99.90;;;;;;4992180;28;20114;-48
2023/10/14 07:17:22;;;;;;;0.40;0.40;;;16.90;99.90;;;;;;4992782;28;20113;-50
2023/10/14 07:19:47;;;;;;;1.70;0.60;;;16.80;99.90;;;;;;5001045;28;20058;-48
2023/10/14 07:22:15;;;;;;;4.80;0.82;;;16.70;99.90;;;;;;5012202;28;20064;-50
2023/10/14 07:24:41;;;;;;;0.77;0.47;;;16.80;99.90;;;;;;5013080;28;20080;-49
2023/10/14 07:27:06;;;;;;;6.05;0.43;;;16.80;99.90;;;;;;5011615;28;20477;-49
2023/10/14 07:29:32;;;;;;;2.22;0.50;;;16.70;99.90;;;;;;5012182;28;20030;-52
2023/10/14 07:31:58;;;;;;;3.40;0.70;;;16.70;99.90;;;;;;5011279;28;20528;-51
2023/10/14 07:34:23;;;;;;;2.88;0.95;;;16.30;99.90;;;;;;5011378;28;20087;-50
2023/10/14 07:36:51;;;;;;;3.53;1.08;;;16.10;99.90;;;;;;5011887;28;20030;-53
2023/10/14 07:39:28;;;;;;;3.60;1.42;;;15.90;99.90;;;;;;5011411;28;20050;-49
2023/10/14 07:41:55;;;;;;;3.33;1.88;;;15.70;99.90;;;;;;5010377;28;20096;-50
2023/10/14 07:44:24;;;;;;;5.18;2.03;;;15.70;99.90;;;;;;5011820;28;20022;-49
2023/10/14 07:46:50;;;;;;;7.97;1.70;;;15.60;99.90;;;;;;5014791;28;20101;-48
2023/10/14 07:49:16;;;;;;;4.97;1.80;;;15.50;99.90;;;;;;5015635;28;20073;-51
2023/10/14 07:51:42;;;;;;;4.30;1.35;;;15.40;99.90;;;;;;5015981;28;20069;-47
2023/10/14 07:54:08;;;;;;;3.65;1.60;;;15.20;99.90;;;;;;5015389;28;20106;-48
2023/10/14 07:56:34;;;;;;;7.80;1.90;;;15.40;99.90;;;;;;5015491;28;20478;-50
2023/10/14 07:59:01;;;;;;;4.88;1.38;;;15.10;99.90;;;;;;5015696;28;20025;-49
2023/10/14 08:01:27;;;;;;;4.28;1.70;;;15.20;99.90;;;;;;5015961;28;20026;-50
2023/10/14 08:03:56;;;;;;;9.68;1.42;;;15.20;99.90;;;;;;5016892;28;20091;-49
2023/10/14 08:06:22;;;;;;;7.05;2.22;;;15.20;99.90;;;;;;5016717;28;20029;-46
2023/10/14 08:08:48;;;;;;;6.75;2.00;;;15.20;99.90;;;;;;5016928;28;20477;-48
2023/10/14 08:11:14;;;;;;;9.75;1.55;;;15.20;99.90;;;;;;5017448;28;20041;-47
2023/10/14 08:13:42;;;;;;;7.13;1.77;;;15.30;99.90;;;;;;5015978;28;20053;-46
2023/10/14 08:16:07;;;;;;;4.57;1.63;;;15.40;99.90;;;;;;5015075;28;20044;-49
2023/10/14 08:18:34;;;;;;;7.30;1.95;;;15.30;99.90;;;;;;5014994;28;20029;-45
2023/10/14 08:21:00;;;;;;;11.40;1.80;;;15.30;99.90;;;;;;5012300;28;21218;-51
2023/10/14 08:23:28;;;;;;;12.13;1.98;;;15.30;99.90;;;;;;5014776;28;20029;-48
2023/10/14 08:25:54;;;;;;;8.27;1.80;;;15.20;99.90;;;;;;5013308;28;20030;-49
2023/10/14 08:28:29;;;;;;;10.80;1.92;;;15.30;99.90;;;;;;5014956;28;20409;-49
2023/10/14 08:30:57;;;;;;;10.55;2.30;;;15.30;99.90;;;;;;5015044;28;20115;-46
2023/10/14 08:33:24;;;;;;;6.03;2.00;;;15.20;99.90;;;;;;5014735;28;20405;-49
2023/10/14 08:35:51;;;;;;;7.05;2.03;;;15.30;99.90;;;;;;5014243;28;20029;-46
2023/10/14 08:38:27;;;;;;;14.20;2.20;;;15.30;99.90;;;;;;5014599;28;20080;-48
2023/10/14 08:40:59;;;;;;;5.47;1.88;;;15.40;99.90;;;;;;5014736;28;20161;-47
2023/10/14 08:43:26;;;;;;;6.45;2.60;;;15.50;99.90;;;;;;5014580;28;20026;-46
2023/10/14 08:45:53;;;;;;;12.57;3.42;;;15.40;99.90;;;;;;5013986;28;20049;-47
2023/10/14 08:48:25;;;;;;;9.35;2.25;;;15.50;99.90;;;;;;5014299;28;20085;-47
2023/10/14 08:50:55;;;;;;;10.68;2.05;;;15.60;99.90;;;;;;5014405;28;20039;-48
2023/10/14 08:53:22;;;;;;;9.05;2.42;;;15.70;99.90;;;;;;5014242;28;20025;-50
2023/10/14 08:55:49;;;;;;;4.97;1.48;;;15.80;99.90;;;;;;5014128;28;20030;-47
2023/10/14 08:58:14;;;;;;;11.43;2.28;;;15.80;99.90;;;;;;5013926;28;20745;-46
2023/10/14 09:00:42;;;;;;;14.07;2.33;;;15.90;99.90;;;;;;5014153;28;20054;-48
2023/10/14 09:03:11;;;;;;;10.90;2.75;;;15.90;99.90;;;;;;5014000;28;20076;-46
2023/10/14 09:05:41;;;;;;;8.43;1.67;;;16.10;99.90;;;;;;5012634;28;20018;-49
2023/10/14 09:08:11;;;;;;;13.85;2.58;;;17.10;99.90;;;;;;5013422;28;20101;-47
2023/10/14 09:10:37;;;;;;;8.38;1.65;;;18.60;99.90;;;;;;5013723;28;20456;-48
2023/10/14 09:13:06;;;;;;;6.70;1.80;;;20.00;99.90;;;;;;5014185;28;20037;-47
2023/10/14 09:15:34;;;;;;;6.80;1.48;;;20.00;99.90;;;;;;5014013;28;20034;-48
2023/10/14 09:18:00;;;;;;;7.00;1.60;;;20.30;99.90;;;;;;5013519;28;20064;-47
2023/10/14 09:20:30;;;;;;;3.97;1.50;;;20.80;99.90;;;;;;5011050;28;20026;-48
2023/10/14 09:23:17;;;;;;;6.90;2.50;;;21.70;98.40;;;;;;5013108;28;20045;-48
2023/10/14 09:25:45;;;;;;;5.15;1.50;;;22.30;97.20;;;;;;5008811;28;20022;-47
2023/10/14 09:28:12;;;;;;;5.03;1.42;;;22.90;96.10;;;;;;5013378;28;20022;-46
2023/10/14 09:30:44;;;;;;;9.95;1.88;;;23.20;94.90;;;;;;5013324;28;20032;-46
2023/10/14 09:33:12;;;;;;;6.97;2.05;;;23.40;94.50;;;;;;5013255;28;20018;-47
2023/10/14 09:35:41;;;;;;;7.13;2.22;;;23.20;94.10;;;;;;5013084;28;20033;-45
2023/10/14 09:38:08;;;;;;;5.63;1.98;;;22.60;94.80;;;;;;5012932;28;20096;-47
2023/10/14 09:40:35;;;;;;;4.75;2.10;;;22.40;95.20;;;;;;5012584;28;20033;-46
2023/10/14 09:43:03;;;;;;;4.15;1.83;;;21.90;95.70;;;;;;5013174;28;20030;-51
2023/10/14 09:45:32;;;;;;;6.85;1.90;;;22.20;96.10;;;;;;5013512;28;20023;-46
2023/10/14 09:47:59;;;;;;;14.40;8.68;;;22.10;95.40;;;;;;5013611;28;20067;-48
2023/10/14 09:50:26;;;;;;;5.05;1.90;;;21.50;96.10;;;;;;5013723;28;20022;-47
2023/10/14 09:52:53;;;;;;;7.68;1.77;;;21.10;96.20;;;;;;5013532;28;20053;-47
2023/10/14 09:55:20;;;;;;;8.13;2.10;;;20.40;97.10;;;;;;5013040;28;20488;-46
2023/10/14 09:57:47;;;;;;;5.90;1.45;;;20.20;97.70;;;;;;5013093;28;20113;-45
2023/10/14 10:00:16;;;;;;;5.15;1.67;;;20.40;97.10;;;;;;5012932;28;20029;-48
2023/10/14 10:02:44;;;;;;;6.70;2.58;;;20.40;96.90;;;;;;5019449;28;20014;-45
2023/10/14 10:05:15;;;;;;;5.72;1.63;;;20.60;96.50;;;;;;5009510;28;20018;-46
2023/10/14 10:07:56;;;;;;;4.80;2.08;;;20.40;96.30;;;;;;5010938;28;20088;-48
2023/10/14 10:10:26;;;;;;;8.82;1.80;;;20.20;95.90;;;;;;5011518;28;20502;-51
2023/10/14 10:12:55;;;;;;;5.95;1.88;;;20.00;96.50;;;;;;5009948;28;20489;-50
2023/10/14 10:15:23;;;;;;;5.53;2.08;;;19.90;96.80;;;;;;5010860;28;20512;-46
2023/10/14 10:18:06;;;;;;;4.75;2.10;;;20.10;96.60;;;;;;5012056;28;20439;-48
2023/10/14 10:20:35;;;;;;;7.63;1.77;;;20.10;96.30;;;;;;4994505;28;20030;-49
2023/10/14 10:23:02;;;;;;;7.18;2.25;;;20.10;95.80;;;;;;5000101;28;20025;-45
2023/10/14 10:25:36;;;;;;;7.72;1.95;;;20.10;95.60;;;;;;5012137;28;20033;-46
2023/10/14 10:28:37;;;;;;;5.00;1.67;;;20.20;95.40;;;;;;5012089;28;20033;-48
2023/10/14 10:31:14;;;;;;;4.75;1.95;;;20.00;95.20;;;;;;5012456;28;20049;-48
2023/10/14 10:34:03;;;;;;;35.47;20.42;;;19.60;95.00;;;;;;5011086;28;20033;-50
2023/10/14 10:36:33;;;;;;;6.95;2.58;;;19.60;95.00;;;;;;4993491;28;20425;-48
2023/10/14 10:39:16;;;;;;;9.60;2.17;;;19.40;95.30;;;;;;4991963;28;20092;-49
2023/10/14 10:41:42;;;;;;;4.05;1.52;;;19.30;95.50;;;;;;4993238;28;20027;-49
2023/10/14 10:44:11;;;;;;;6.60;2.15;;;19.20;95.50;;;;;;4992532;28;20058;-51
2023/10/14 10:46:52;;;;;;;6.07;2.13;;;19.30;95.50;;;;;;4996055;28;20470;-45
2023/10/14 10:49:51;;;;;;;7.80;1.50;;;18.70;95.60;;;;;;4995324;28;20053;-46
2023/10/14 10:52:16;;;;;;;6.43;1.33;;;18.50;96.20;;;;;;5012552;28;20647;-47
2023/10/14 10:54:43;;;;;;;3.45;1.05;;;18.60;94.70;;;;;;5012706;28;20109;-45
2023/10/14 10:57:11;;;;;;;6.47;2.05;;;18.60;93.50;;;;;;5012919;28;20118;-46
2023/10/14 10:59:37;;;;;;;6.00;1.65;;;18.70;92.10;;;;;;5013413;28;20022;-45
2023/10/14 11:02:09;;;;;;;5.95;1.58;;;18.60;92.20;;;;;;5013038;28;20029;-48
2023/10/14 11:04:34;;;;;;;5.47;2.08;;;18.30;92.70;;;;;;5013322;28;20393;-45
2023/10/14 11:07:00;;;;;;;4.25;2.25;;;18.40;93.50;;;;;;5012935;28;20022;-49
2023/10/14 11:09:30;;;;;;;4.95;1.48;;;18.40;93.50;;;;;;5027472;23;20050;-46
2023/10/14 11:12:00;;;;;;;3.47;1.85;;;18.40;93.70;;;;;;4992481;28;20442;-46
2023/10/14 11:14:26;;;;;;;5.25;1.73;;;18.30;94.10;;;;;;4992408;28;20026;-50
2023/10/14 11:16:56;;;;;;;8.18;2.45;;;17.90;94.40;;;;;;4992553;28;20544;-46
2023/10/14 11:19:21;;;;;;;7.85;2.88;;;18.00;94.90;;;;;;4992198;28;20049;-49
2023/10/14 11:21:50;;;;;;;6.65;2.17;;;18.10;95.10;;;;;;4991184;28;20662;-53
2023/10/14 11:24:16;;;;;;;8.30;1.77;;;18.00;95.00;;;;;;4992365;28;20273;-51
2023/10/14 11:26:44;;;;;;;4.55;1.40;;;17.90;94.80;;;;;;4992532;28;20025;-48
2023/10/14 11:29:10;;;;;;;6.25;1.65;;;17.90;95.10;;;;;;4992142;28;20014;-46
2023/10/14 11:31:39;;;;;;;5.18;1.25;;;17.90;95.70;;;;;;4992388;28;20029;-50
2023/10/14 11:34:06;;;;;;;6.00;1.70;;;17.90;95.80;;;;;;4991933;28;20105;-47
2023/10/14 11:36:32;;;;;;;3.65;1.10;;;17.80;96.70;;;;;;4991873;28;20023;-50
2023/10/14 11:39:00;;;;;;;2.50;1.00;;;17.70;95.40;;;;;;4992400;28;20397;-46
2023/10/14 11:41:27;;;;;;;4.22;1.50;;;17.70;94.90;;;;;;4992096;28;20474;-52
2023/10/14 11:43:52;;;;;;;3.78;1.50;;;17.80;95.00;;;;;;4990528;28;20023;-47
2023/10/14 11:46:18;;;;;;;2.70;1.52;;;17.80;94.90;;;;;;4990347;28;20394;-48
2023/10/14 11:48:48;;;;;;;2.75;1.25;;;17.70;95.00;;;;;;4991715;28;20041;-41
2023/10/14 11:51:19;;;;;;;2.45;1.20;;;17.60;95.10;;;;;;4990485;28;20026;-43
2023/10/14 11:53:50;;;;;;;4.53;1.20;;;17.60;94.60;;;;;;4991700;28;20401;-47
2023/10/14 11:56:16;;;;;;;3.42;1.45;;;17.50;94.70;;;;;;4991688;28;20040;-43
2023/10/14 11:58:42;;;;;;;3.90;1.27;;;17.50;94.50;;;;;;4991841;28;20046;-51
2023/10/14 12:01:12;;;;;;;7.80;1.60;;;17.40;94.40;;;;;;4991643;28;20030;-43
2023/10/14 12:03:39;;;;;;;4.97;1.23;;;17.30;95.10;;;;;;4991466;28;20022;-49
2023/10/14 12:06:06;;;;;;;3.22;1.10;;;17.30;95.20;;;;;;4991980;28;20371;-44
2023/10/14 12:08:38;;;;;;;3.33;1.17;;;17.30;94.90;;;;;;4991861;28;20133;-45
2023/10/14 12:11:08;;;;;;;5.68;1.42;;;17.20;95.20;;;;;;4991593;28;20037;-47
2023/10/14 12:13:34;;;;;;;5.68;1.13;;;17.20;95.20;;;;;;4991683;28;20508;-48
2023/10/14 12:16:05;;;;;;;3.97;1.23;;;17.20;94.80;;;;;;4991603;28;20031;-50
2023/10/14 12:18:31;;;;;;;5.28;1.30;;;17.20;94.70;;;;;;4991757;28;20034;-49
2023/10/14 12:20:57;;;;;;;5.97;1.85;;;17.10;95.30;;;;;;4991500;28;20033;-49
2023/10/14 12:23:22;;;;;;;5.30;1.10;;;17.10;95.40;;;;;;4991854;28;20483;-45
2023/10/14 12:25:49;;;;;;;5.97;1.00;;;17.10;95.10;;;;;;4991668;28;20035;-45
2023/10/14 12:28:34;;;;;;;3.28;0.90;;;17.00;95.50;;;;;;4991279;28;20026;-45
2023/10/14 12:31:08;;;;;;;4.13;1.20;;;17.00;95.90;;;;;;4992951;28;20035;-45
2023/10/14 12:33:38;;;;;;;2.50;1.00;;;16.80;95.60;;;;;;4995001;28;20062;-45
2023/10/14 12:36:09;;;;;;;5.32;1.42;;;16.80;96.00;;;;;;4995071;28;20501;-45
2023/10/14 12:38:36;;;;;;;3.55;0.98;;;16.70;96.30;;;;;;4995076;28;20463;-46
2023/10/14 12:41:02;;;;;;;4.88;1.63;;;16.70;96.00;;;;;;4994914;28;20019;-44
2023/10/14 12:43:39;;;;;;;7.78;1.38;;;16.80;96.20;;;;;;4995368;28;20084;-43
2023/10/14 12:46:19;;;;;;;7.43;1.63;;;16.70;96.40;;;;;;4995149;28;20041;-50
2023/10/14 12:48:46;;;;;;;7.70;1.83;;;16.70;96.40;;;;;;4995262;28;20022;-46
2023/10/14 12:51:17;;;;;;;13.05;1.40;;;16.70;96.80;;;;;;4995208;28;20023;-43
2023/10/14 12:53:47;;;;;;;3.08;1.50;;;16.60;97.30;;;;;;4994857;28;20482;-50
2023/10/14 12:56:17;;;;;;;6.22;1.20;;;16.60;97.10;;;;;;4994740;28;20441;-44
2023/10/14 12:58:46;;;;;;;4.50;1.42;;;16.50;96.80;;;;;;4994936;28;20027;-45
2023/10/14 13:01:20;;;;;;;5.88;1.63;;;16.60;97.00;;;;;;4994820;28;20019;-44
2023/10/14 13:03:52;;;;;;;4.82;1.33;;;16.60;97.00;;;;;;4993129;28;20239;-44
2023/10/14 13:06:27;;;;;;;5.03;1.45;;;16.60;96.50;;;;;;4993453;28;20051;-49
2023/10/14 13:08:59;;;;;;;5.00;1.38;;;16.60;96.40;;;;;;4993994;28;20390;-46
2023/10/14 13:11:28;;;;;;;5.93;1.17;;;16.50;96.40;;;;;;4985959;28;20066;-55
2023/10/14 13:13:55;;;;;;;3.08;0.90;;;16.50;96.10;;;;;;4989726;28;20040;-54
2023/10/14 13:16:21;;;;;;;24.73;14.40;;;16.50;95.60;;;;;;4991730;28;20157;-50
2023/10/14 13:18:48;;;;;;;22.98;13.63;;;16.60;95.20;;;;;;4992623;28;20073;-54
2023/10/14 13:21:21;;;;;;;11.38;2.08;;;16.70;95.30;;;;;;4990744;28;20035;-50
2023/10/14 13:23:47;;;;;;;5.10;1.40;;;16.80;95.90;;;;;;4992191;28;20029;-53
2023/10/14 13:26:16;;;;;;;6.18;1.30;;;16.90;96.00;;;;;;4992370;28;20109;-50
2023/10/14 13:28:45;;;;;;;5.10;1.23;;;17.00;95.60;;;;;;4988744;28;20018;-50